Terminal Aerodrome Forecast
Issued by NWS Memphis, TN

Home | Current Version | Previous Version | Text Only | Print | Product List | Glossary On
Versions: 1 2 3 4 5 6 7 8 9 10 11 12 13 14 15
000
FTUS44 KMEG 260532
TAFJBR
TAF
KJBR 260532Z 2606/2706 32012G21KT P6SM SCT015 OVC025
      TEMPO 2606/2609 BKN015
     FM260900 32009KT P6SM FEW015 OVC030
     FM261300 30008KT P6SM SCT035
     FM261900 24010G17KT P6SM FEW100
     FM270100 25007KT P6SM SKC=

USA.gov is the U.S. government's official web portal to all federal, state and local government web resources and services.